Home > Products > Valid Products > SSM

000
SMZS01 NSTU 281751
SSMPPG
AAXX 28184
91765 32569 61413 10262 20212 30132 40135 51010 82170 333 5639/
70008 555 92818=




000
SMZS01 NSTU 281155
SSMPPG
AAXX 28124
91765 11566 51113 10264 20221 30135 40139 56012 69901 70282 83170
333 10293 5629/ 59008 70008 555 92812=




000
SMZS01 NSTU 261204
SSMPPG
AAXX 26124
91765 32466 61112 10281 20258 30135 40139 54000 84170 333 10310
5629/ 58009 555 92612=




    US Dept of Commerce
    National Oceanic and Atmospheric Administration
    National Weather Service
    1325 East West Highway
    Silver Spring, MD 20910
    Page Author: NWS Internet Services Team
Disclaimer
Information Quality
Credits
Glossary
Privacy Policy
Freedom of Information Act (FOIA)
About Us
Career Opportunities